createdAt,value
2022-08-25T00:00:27.644Z,5.97
2022-08-25T00:02:57.764Z,4.70
2022-08-25T00:05:33.330Z,5.63
2022-08-25T00:08:06.158Z,5.30
2022-08-25T00:10:40.009Z,5.20
2022-08-25T00:13:11.433Z,5.05
2022-08-25T00:15:41.381Z,5.55
2022-08-25T00:18:14.792Z,4.82
2022-08-25T00:20:50.433Z,5.32
2022-08-25T00:23:20.852Z,5.10
2022-08-25T00:25:50.845Z,5.03
2022-08-25T00:28:22.071Z,4.72
2022-08-25T00:30:52.315Z,5.15
2022-08-25T00:33:21.873Z,5.97
2022-08-25T00:35:52.203Z,5.47
2022-08-25T00:38:22.023Z,5.20
2022-08-25T00:41:05.861Z,5.00
2022-08-25T00:43:50.944Z,5.00
2022-08-25T00:46:25.520Z,5.60
2022-08-25T00:49:02.146Z,5.07
2022-08-25T00:51:42.957Z,5.88
2022-08-25T00:54:20.609Z,5.63
2022-08-25T00:56:52.505Z,4.95
2022-08-25T00:59:26.363Z,5.80
2022-08-25T01:01:57.628Z,4.85
2022-08-25T01:04:27.934Z,5.45
2022-08-25T01:06:59.439Z,4.68
2022-08-25T01:09:32.481Z,5.97
2022-08-25T01:14:35.859Z,5.53
2022-08-25T01:17:17.317Z,6.10
2022-08-25T01:19:50.602Z,5.68
2022-08-25T01:22:21.673Z,5.28
2022-08-25T01:25:01.106Z,5.28
2022-08-25T01:27:30.767Z,5.82
2022-08-25T01:30:00.400Z,5.93
2022-08-25T01:32:30.108Z,5.47
2022-08-25T01:34:59.681Z,5.93
2022-08-25T01:37:30.638Z,6.65
2022-08-25T01:40:00.311Z,6.78
2022-08-25T01:42:55.598Z,6.78
2022-08-25T01:45:25.621Z,6.65
2022-08-25T01:47:58.344Z,6.28
2022-08-25T01:50:29.389Z,7.28
2022-08-25T01:53:07.084Z,6.22
2022-08-25T01:55:52.869Z,6.15
2022-08-25T01:58:26.726Z,6.13
2022-08-25T02:01:01.570Z,6.15
2022-08-25T02:03:32.477Z,6.68
2022-08-25T02:06:04.310Z,6.00
2022-08-25T02:08:36.472Z,7.65
2022-08-25T02:11:06.771Z,6.80
2022-08-25T02:13:36.293Z,6.20
2022-08-25T02:16:06.740Z,6.05
2022-08-25T02:18:36.980Z,6.85
2022-08-25T02:21:07.041Z,7.18
2022-08-25T02:23:37.984Z,8.15
2022-08-25T02:26:07.484Z,6.53
2022-08-25T02:28:38.111Z,7.22
2022-08-25T02:31:08.180Z,7.30
2022-08-25T02:33:37.724Z,7.45
2022-08-25T02:36:08.490Z,6.93
2022-08-25T02:38:40.747Z,6.32
2022-08-25T02:41:14.581Z,6.93
2022-08-25T02:43:46.722Z,5.85
2022-08-25T02:46:19.823Z,5.80
2022-08-25T02:48:51.786Z,6.32
2022-08-25T02:51:23.555Z,6.47
2022-08-25T02:53:54.459Z,7.32
2022-08-25T02:56:25.716Z,6.53
2022-08-25T02:58:55.702Z,6.32
2022-08-25T03:01:28.777Z,6.88
2022-08-25T03:03:59.909Z,7.38
2022-08-25T03:06:29.862Z,7.72
2022-08-25T03:09:01.410Z,7.35
2022-08-25T03:11:40.470Z,8.75
2022-08-25T03:14:11.134Z,8.18
2022-08-25T03:16:42.891Z,7.68
2022-08-25T03:19:16.709Z,7.63
2022-08-25T03:21:46.783Z,8.27
2022-08-25T03:24:17.732Z,8.68
2022-08-25T03:26:55.941Z,9.20
2022-08-25T03:29:29.600Z,9.48
2022-08-25T03:32:00.660Z,9.50
2022-08-25T03:34:31.572Z,9.63
2022-08-25T03:37:01.111Z,9.63
2022-08-25T03:39:32.070Z,9.45
2022-08-25T03:42:04.158Z,11.50
2022-08-25T03:44:33.680Z,10.38
2022-08-25T03:47:03.317Z,10.90
2022-08-25T03:49:32.804Z,11.02
2022-08-25T03:52:04.560Z,10.77
2022-08-25T03:54:35.377Z,10.63
2022-08-25T03:57:06.154Z,10.52
2022-08-25T03:59:38.317Z,10.50
2022-08-25T04:02:08.580Z,11.77
2022-08-25T04:04:38.090Z,10.88
2022-08-25T04:07:08.155Z,11.23
2022-08-25T04:09:39.736Z,10.98
2022-08-25T04:12:10.184Z,10.90
2022-08-25T04:14:39.657Z,10.55
2022-08-25T04:17:09.520Z,10.48
2022-08-25T04:19:39.274Z,10.57
2022-08-25T04:22:08.883Z,9.30
2022-08-25T04:24:39.967Z,7.63
2022-08-25T04:27:09.658Z,10.13
2022-08-25T04:29:39.428Z,10.00
2022-08-25T04:32:09.101Z,9.48
2022-08-25T04:34:39.037Z,10.13
2022-08-25T04:37:09.046Z,9.77
2022-08-25T04:39:40.050Z,11.52
2022-08-25T04:42:09.608Z,9.63
2022-08-25T04:44:39.381Z,11.05
2022-08-25T04:47:09.686Z,11.98
2022-08-25T04:49:39.682Z,12.40
2022-08-25T04:52:32.413Z,11.18
2022-08-25T04:55:03.533Z,11.10
2022-08-25T04:57:33.025Z,12.30
2022-08-25T05:00:02.558Z,12.27
2022-08-25T05:02:32.762Z,12.23
2022-08-25T05:05:04.048Z,12.75
2022-08-25T05:07:33.535Z,13.93
2022-08-25T05:10:04.924Z,11.20
2022-08-25T05:12:34.552Z,12.65
2022-08-25T05:15:26.902Z,11.50
2022-08-25T05:17:57.561Z,9.57
2022-08-25T05:20:27.337Z,10.75
2022-08-25T05:22:56.812Z,12.40
2022-08-25T05:25:27.653Z,10.02
2022-08-25T05:27:57.452Z,14.95
2022-08-25T05:30:26.990Z,10.23
2022-08-25T05:32:57.206Z,13.07
2022-08-25T05:35:26.793Z,13.80
2022-08-25T05:37:57.316Z,13.15
2022-08-25T05:40:28.420Z,13.38
2022-08-25T05:42:57.995Z,15.48
2022-08-25T05:45:27.720Z,13.95
2022-08-25T05:47:57.997Z,16.55
2022-08-25T05:50:27.670Z,14.30
2022-08-25T05:52:57.127Z,14.38
2022-08-25T05:55:28.044Z,16.65
2022-08-25T05:57:57.544Z,15.07
2022-08-25T06:00:27.016Z,14.38
2022-08-25T06:02:55.529Z,15.55
2022-08-25T06:05:25.335Z,14.23
2022-08-25T06:07:54.925Z,15.60
2022-08-25T06:10:24.663Z,13.30
2022-08-25T06:12:56.766Z,13.63
2022-08-25T06:15:28.837Z,15.00
2022-08-25T06:18:05.380Z,15.32
2022-08-25T06:20:35.139Z,15.18
2022-08-25T06:23:04.622Z,13.45
2022-08-25T06:25:34.269Z,16.08
2022-08-25T06:28:05.677Z,14.05
2022-08-25T06:30:35.519Z,14.82
2022-08-25T06:33:05.353Z,15.48
2022-08-25T06:35:34.935Z,14.73
2022-08-25T06:38:05.172Z,12.68
2022-08-25T06:40:34.896Z,14.73
2022-08-25T06:43:08.746Z,15.82
2022-08-25T06:45:38.261Z,15.60
2022-08-25T06:48:07.937Z,15.77
2022-08-25T06:50:39.670Z,17.60
2022-08-25T06:53:09.392Z,15.15
2022-08-25T06:55:39.330Z,14.75
2022-08-25T06:58:11.324Z,15.00
2022-08-25T07:00:41.047Z,13.05
2022-08-25T07:03:10.572Z,13.27
2022-08-25T07:05:43.706Z,14.15
2022-08-25T07:08:13.436Z,13.60
2022-08-25T07:10:42.904Z,14.63
2022-08-25T07:13:19.298Z,13.75
2022-08-25T07:15:48.851Z,12.32
2022-08-25T07:18:18.389Z,11.73
2022-08-25T07:20:48.274Z,12.25
2022-08-25T07:23:18.101Z,11.82
2022-08-25T07:25:47.881Z,12.02
2022-08-25T07:28:19.889Z,12.43
2022-08-25T07:30:52.252Z,12.10
2022-08-25T07:33:21.800Z,11.15
2022-08-25T07:35:50.918Z,11.10
2022-08-25T07:38:21.172Z,11.85
2022-08-25T07:40:54.702Z,9.90
2022-08-25T07:43:27.933Z,12.88
2022-08-25T07:45:57.426Z,11.90
2022-08-25T07:48:26.955Z,12.70
2022-08-25T07:51:01.092Z,11.75
2022-08-25T07:53:32.823Z,11.10
2022-08-25T07:58:39.216Z,12.18
2022-08-25T08:01:15.677Z,12.70
2022-08-25T08:03:50.452Z,11.68
2022-08-25T08:06:25.350Z,10.43
2022-08-25T08:08:58.004Z,12.50
2022-08-25T08:11:33.067Z,12.07
2022-08-25T08:14:05.159Z,11.77
2022-08-25T08:16:35.132Z,10.95
2022-08-25T08:19:05.325Z,10.73
2022-08-25T08:21:37.789Z,11.05
2022-08-25T08:24:24.895Z,10.20
2022-08-25T08:26:59.295Z,10.77
2022-08-25T08:29:30.404Z,11.55
2022-08-25T08:32:01.347Z,10.80
2022-08-25T08:34:31.200Z,10.43
2022-08-25T08:37:02.478Z,10.02
2022-08-25T08:39:32.197Z,9.60
2022-08-25T08:42:24.022Z,8.38
2022-08-25T08:45:20.446Z,9.98
2022-08-25T08:48:09.979Z,8.10
2022-08-25T08:50:57.334Z,9.30
2022-08-25T08:53:37.127Z,9.68
2022-08-25T08:56:12.403Z,7.13
2022-08-25T08:58:50.076Z,8.15
2022-08-25T09:01:29.614Z,6.63
2022-08-25T09:04:09.773Z,6.88
2022-08-25T09:06:44.340Z,6.40
2022-08-25T09:09:21.097Z,8.15
2022-08-25T09:12:04.416Z,7.43
2022-08-25T09:17:45.356Z,6.53
2022-08-25T09:20:57.682Z,6.22
2022-08-25T09:23:47.647Z,5.97
2022-08-25T09:26:31.007Z,6.57
2022-08-25T09:29:16.183Z,6.07
2022-08-25T09:31:48.795Z,5.35
2022-08-25T09:34:24.267Z,7.30
2022-08-25T09:36:53.721Z,4.90
2022-08-25T09:39:23.422Z,6.25
2022-08-25T09:41:57.339Z,5.68
2022-08-25T09:44:36.109Z,5.68
2022-08-25T09:47:14.746Z,5.72
2022-08-25T09:49:49.132Z,5.03
2022-08-25T09:52:34.689Z,5.75
2022-08-25T09:55:34.213Z,6.30
2022-08-25T09:58:22.233Z,5.15
2022-08-25T10:01:24.966Z,5.60
2022-08-25T10:04:02.648Z,6.88
2022-08-25T10:06:45.705Z,5.28
2022-08-25T10:09:30.445Z,5.47
2022-08-25T10:12:04.926Z,5.80
2022-08-25T10:18:25.915Z,5.47
2022-08-25T10:21:18.958Z,4.95
2022-08-25T10:23:55.913Z,5.57
2022-08-25T10:26:56.861Z,5.35
2022-08-25T10:29:54.125Z,5.10
2022-08-25T10:32:38.224Z,5.20
2022-08-25T10:35:15.729Z,5.60
2022-08-25T10:38:05.996Z,5.32
2022-08-25T10:40:48.723Z,5.30
2022-08-25T10:43:31.932Z,5.15
2022-08-25T10:46:16.220Z,5.63
2022-08-25T10:49:00.021Z,4.63
2022-08-25T10:51:56.957Z,5.35
2022-08-25T10:54:45.062Z,5.10
2022-08-25T10:57:37.525Z,5.35
2022-08-25T11:03:19.098Z,5.57
2022-08-25T11:05:57.117Z,6.00
2022-08-25T11:08:37.857Z,6.07
2022-08-25T11:11:14.333Z,4.93
2022-08-25T11:13:54.260Z,5.93
2022-08-25T11:16:37.549Z,5.88
2022-08-25T11:19:18.024Z,5.60
2022-08-25T11:21:57.249Z,5.22
2022-08-25T11:24:48.242Z,6.10
2022-08-25T11:27:32.433Z,6.03
2022-08-25T11:30:09.634Z,6.03
2022-08-25T11:32:42.012Z,6.00
2022-08-25T11:35:15.144Z,5.45
2022-08-25T11:38:01.944Z,5.82
2022-08-25T11:40:54.426Z,6.25
2022-08-25T11:43:48.829Z,6.03
2022-08-25T11:46:45.527Z,6.22
2022-08-25T11:49:49.791Z,5.85
2022-08-25T11:52:53.948Z,6.43
2022-08-25T11:55:46.633Z,5.50
2022-08-25T11:58:41.640Z,6.47
2022-08-25T12:01:47.224Z,5.68
2022-08-25T12:04:44.730Z,5.82
2022-08-25T12:07:26.737Z,6.10
2022-08-25T12:10:20.849Z,4.93
2022-08-25T12:13:43.834Z,4.85
2022-08-25T12:16:44.461Z,5.93
2022-08-25T12:19:49.627Z,6.07
2022-08-25T12:22:55.203Z,6.55
2022-08-25T12:25:47.209Z,6.80
2022-08-25T12:28:43.303Z,7.03
2022-08-25T12:31:37.928Z,6.03
2022-08-25T12:34:36.399Z,7.22
2022-08-25T12:37:14.708Z,6.38
2022-08-25T12:40:01.325Z,6.97
2022-08-25T12:42:36.801Z,7.35
2022-08-25T12:45:37.177Z,6.55
2022-08-25T12:48:57.010Z,6.72
2022-08-25T12:51:30.138Z,6.68
2022-08-25T12:54:19.045Z,6.45
2022-08-25T12:56:58.640Z,8.00
2022-08-25T12:59:39.186Z,7.55
2022-08-25T13:02:39.785Z,6.18
2022-08-25T13:06:09.259Z,7.07
2022-08-25T13:10:00.957Z,6.57
2022-08-25T13:12:41.086Z,6.35
2022-08-25T13:15:17.996Z,6.57
2022-08-25T13:17:47.488Z,5.60
2022-08-25T13:20:25.405Z,7.22
2022-08-25T13:23:06.521Z,6.65
2022-08-25T13:25:49.332Z,6.57
2022-08-25T13:28:30.476Z,6.47
2022-08-25T13:31:08.020Z,6.43
2022-08-25T13:33:38.489Z,6.57
2022-08-25T13:36:35.014Z,6.60
2022-08-25T13:39:16.008Z,6.25
2022-08-25T13:41:55.488Z,6.75
2022-08-25T13:44:29.125Z,5.75
2022-08-25T13:47:33.581Z,6.68
2022-08-25T13:50:22.854Z,6.93
2022-08-25T13:52:59.444Z,6.78
2022-08-25T13:55:38.291Z,6.90
2022-08-25T13:58:39.217Z,6.63
2022-08-25T14:01:47.141Z,6.88
2022-08-25T14:04:32.472Z,6.82
2022-08-25T14:07:33.713Z,6.90
2022-08-25T14:10:09.802Z,6.85
2022-08-25T14:12:46.198Z,7.43
2022-08-25T14:15:33.408Z,6.22
2022-08-25T14:18:09.542Z,6.38
2022-08-25T14:20:50.345Z,6.35
2022-08-25T14:23:24.132Z,7.05
2022-08-25T14:25:56.631Z,6.72
2022-08-25T14:28:30.280Z,7.03
2022-08-25T14:31:06.607Z,5.97
2022-08-25T14:33:44.601Z,7.22
2022-08-25T14:36:20.950Z,6.30
2022-08-25T14:38:54.864Z,6.05
2022-08-25T14:41:26.490Z,6.68
2022-08-25T14:43:55.954Z,6.72
2022-08-25T14:46:32.407Z,6.45
2022-08-25T14:49:06.470Z,6.50
2022-08-25T14:51:37.085Z,6.53
2022-08-25T14:54:12.309Z,5.97
2022-08-25T14:56:42.991Z,6.78
2022-08-25T14:59:13.380Z,7.03
2022-08-25T15:01:44.789Z,6.35
2022-08-25T15:04:18.582Z,7.15
2022-08-25T15:06:56.814Z,7.63
2022-08-25T15:09:33.321Z,7.28
2022-08-25T15:12:03.533Z,6.43
2022-08-25T15:14:34.316Z,6.95
2022-08-25T15:17:05.225Z,7.43
2022-08-25T15:19:43.422Z,6.85
2022-08-25T15:22:15.264Z,6.93
2022-08-25T15:24:44.733Z,7.53
2022-08-25T15:27:15.142Z,7.10
2022-08-25T15:29:44.668Z,6.97
2022-08-25T15:32:15.860Z,7.13
2022-08-25T15:34:47.514Z,6.82
2022-08-25T15:37:18.804Z,6.22
2022-08-25T15:39:49.131Z,6.43
2022-08-25T15:42:19.345Z,6.60
2022-08-25T15:44:53.470Z,6.95
2022-08-25T15:47:25.134Z,8.00
2022-08-25T15:50:06.761Z,6.65
2022-08-25T15:55:19.863Z,7.25
2022-08-25T15:57:50.247Z,6.95
2022-08-25T16:00:21.639Z,6.65
2022-08-25T16:02:52.807Z,7.50
2022-08-25T16:05:25.972Z,7.22
2022-08-25T16:07:56.006Z,7.40
2022-08-25T16:10:26.617Z,7.63
2022-08-25T16:12:56.583Z,7.40
2022-08-25T16:15:28.854Z,7.38
2022-08-25T16:18:03.179Z,8.10
2022-08-25T16:20:37.152Z,7.82
2022-08-25T16:23:06.886Z,8.30
2022-08-25T16:25:42.407Z,9.18
2022-08-25T16:28:18.700Z,7.32
2022-08-25T16:30:52.604Z,7.70
2022-08-25T16:33:24.272Z,7.38
2022-08-25T16:35:55.080Z,7.95
2022-08-25T16:38:24.593Z,8.68
2022-08-25T16:40:55.227Z,7.47
2022-08-25T16:43:25.559Z,8.38
2022-08-25T16:46:01.939Z,8.52
2022-08-25T16:48:33.175Z,8.10
2022-08-25T16:51:07.376Z,7.70
2022-08-25T16:53:55.204Z,8.38
2022-08-25T16:56:27.275Z,8.43
2022-08-25T16:59:00.611Z,7.90
2022-08-25T17:01:34.034Z,7.15
2022-08-25T17:04:06.364Z,7.60
2022-08-25T17:06:40.069Z,8.43
2022-08-25T17:09:13.027Z,7.60
2022-08-25T17:11:46.809Z,7.30
2022-08-25T17:14:19.852Z,7.22
2022-08-25T17:16:51.209Z,7.68
2022-08-25T17:19:23.618Z,7.43
2022-08-25T17:21:54.547Z,7.70
2022-08-25T17:24:29.386Z,7.20
2022-08-25T17:27:02.536Z,7.88
2022-08-25T17:29:32.906Z,7.95
2022-08-25T17:34:35.607Z,8.07
2022-08-25T17:37:05.638Z,8.23
2022-08-25T17:39:35.159Z,7.25
2022-08-25T17:42:06.212Z,8.40
2022-08-25T17:44:37.466Z,8.95
2022-08-25T17:47:07.299Z,8.57
2022-08-25T17:49:38.654Z,7.82
2022-08-25T17:52:08.819Z,7.90
2022-08-25T17:54:38.365Z,8.10
2022-08-25T17:57:07.955Z,7.75
2022-08-25T17:59:38.717Z,8.90
2022-08-25T18:02:10.487Z,8.00
2022-08-25T18:04:41.934Z,7.40
2022-08-25T18:07:11.502Z,8.38
2022-08-25T18:09:41.314Z,7.80
2022-08-25T18:12:10.996Z,8.45
2022-08-25T18:14:41.471Z,8.82
2022-08-25T18:17:15.693Z,8.88
2022-08-25T18:19:52.983Z,8.05
2022-08-25T18:22:22.543Z,7.80
2022-08-25T18:24:52.458Z,8.18
2022-08-25T18:27:22.407Z,10.00
2022-08-25T18:29:53.822Z,8.30
2022-08-25T18:32:26.049Z,9.43
2022-08-25T18:37:44.752Z,7.72
2022-08-25T18:40:24.637Z,8.32
2022-08-25T18:42:57.524Z,8.48
2022-08-25T18:45:32.906Z,8.85
2022-08-25T18:48:03.806Z,8.25
2022-08-25T18:53:10.634Z,8.90
2022-08-25T18:55:43.250Z,9.13
2022-08-25T18:58:14.282Z,9.23
2022-08-25T19:00:45.683Z,9.00
2022-08-25T19:03:20.186Z,9.73
2022-08-25T19:05:57.259Z,9.38
2022-08-25T19:08:27.359Z,10.57
2022-08-25T19:10:56.946Z,9.98
2022-08-25T19:13:26.640Z,9.85
2022-08-25T19:15:56.378Z,10.55
2022-08-25T19:18:29.025Z,10.48
2022-08-25T19:21:00.100Z,10.00
2022-08-25T19:23:29.555Z,10.80
2022-08-25T19:25:59.357Z,10.80
2022-08-25T19:28:29.174Z,11.02
2022-08-25T19:30:58.906Z,11.10
2022-08-25T19:33:42.589Z,11.57
2022-08-25T19:36:18.382Z,10.50
2022-08-25T19:38:53.349Z,11.73
2022-08-25T19:41:23.581Z,11.70
2022-08-25T19:43:56.695Z,11.20
2022-08-25T19:46:33.320Z,10.77
2022-08-25T19:49:08.098Z,11.27
2022-08-25T19:51:44.599Z,11.52
2022-08-25T19:54:18.195Z,10.20
2022-08-25T19:56:55.037Z,10.88
2022-08-25T19:59:42.391Z,11.02
2022-08-25T20:02:24.969Z,11.43
2022-08-25T20:04:59.462Z,12.48
2022-08-25T20:07:32.606Z,12.32
2022-08-25T20:10:03.768Z,10.18
2022-08-25T20:12:35.468Z,11.93
2022-08-25T20:15:06.902Z,11.73
2022-08-25T20:17:36.658Z,11.73
2022-08-25T20:20:15.665Z,11.30
2022-08-25T20:22:47.224Z,11.90
2022-08-25T20:25:22.977Z,11.18
2022-08-25T20:27:56.776Z,12.50
2022-08-25T20:30:30.716Z,12.73
2022-08-25T20:33:00.732Z,13.23
2022-08-25T20:35:30.988Z,12.70
2022-08-25T20:38:02.098Z,11.57
2022-08-25T20:40:32.498Z,12.77
2022-08-25T20:43:03.292Z,12.93
2022-08-25T20:45:33.408Z,12.75
2022-08-25T20:48:03.183Z,13.90
2022-08-25T20:50:34.626Z,13.55
2022-08-25T20:53:05.746Z,13.13
2022-08-25T20:55:43.736Z,12.65
2022-08-25T20:58:14.256Z,12.77
2022-08-25T21:00:45.005Z,13.20
2022-08-25T21:03:14.690Z,12.68
2022-08-25T21:05:44.815Z,12.18
2022-08-25T21:08:16.683Z,12.82
2022-08-25T21:10:47.791Z,13.13
2022-08-25T21:13:17.337Z,15.15
2022-08-25T21:15:48.910Z,12.80
2022-08-25T21:18:18.701Z,11.93
2022-08-25T21:20:48.201Z,11.88
2022-08-25T21:23:19.658Z,13.00
2022-08-25T21:25:49.758Z,13.30
2022-08-25T21:28:20.237Z,14.57
2022-08-25T21:30:50.786Z,13.23
2022-08-25T21:33:28.232Z,12.15
2022-08-25T21:35:57.977Z,12.32
2022-08-25T21:38:29.376Z,12.90
2022-08-25T21:41:00.555Z,13.55
2022-08-25T21:43:30.117Z,14.30
2022-08-25T21:45:59.756Z,12.65
2022-08-25T21:48:29.519Z,13.10
2022-08-25T21:51:07.347Z,13.82
2022-08-25T21:53:40.904Z,13.68
2022-08-25T21:56:16.215Z,13.25
2022-08-25T21:58:49.165Z,14.43
2022-08-25T22:01:21.225Z,13.70
2022-08-25T22:03:52.587Z,13.38
2022-08-25T22:06:23.105Z,14.27
2022-08-25T22:08:54.640Z,13.45
2022-08-25T22:11:24.472Z,13.55
2022-08-25T22:13:55.316Z,13.88
2022-08-25T22:16:28.038Z,13.35
2022-08-25T22:18:59.466Z,12.40
2022-08-25T22:21:32.677Z,14.10
2022-08-25T22:24:04.240Z,14.10
2022-08-25T22:26:35.145Z,14.10
2022-08-25T22:29:05.759Z,13.60
2022-08-25T22:31:36.945Z,14.85
2022-08-25T22:34:07.697Z,14.18
2022-08-25T22:36:39.800Z,14.45
2022-08-25T22:39:10.839Z,15.32
2022-08-25T22:41:41.644Z,13.55
2022-08-25T22:44:30.002Z,14.50
2022-08-25T22:46:59.579Z,13.70
2022-08-25T22:49:30.781Z,13.68
2022-08-25T22:52:00.422Z,14.52
2022-08-25T22:54:31.353Z,13.55
2022-08-25T22:57:06.721Z,14.07
2022-08-25T22:59:36.526Z,14.55
2022-08-25T23:02:06.542Z,15.18
2022-08-25T23:04:36.397Z,15.48
2022-08-25T23:07:11.729Z,14.43
2022-08-25T23:09:44.041Z,15.20
2022-08-25T23:12:14.193Z,13.77
2022-08-25T23:14:44.378Z,13.85
2022-08-25T23:17:14.139Z,16.30
2022-08-25T23:19:43.785Z,15.70
2022-08-25T23:22:16.327Z,14.48
2022-08-25T23:24:51.874Z,16.05
2022-08-25T23:27:23.806Z,15.57
2022-08-25T23:29:53.290Z,15.57
2022-08-25T23:32:23.190Z,15.52
2022-08-25T23:34:57.617Z,15.40
2022-08-25T23:37:27.110Z,15.25
2022-08-25T23:39:58.749Z,14.25
2022-08-25T23:42:28.544Z,15.50
2022-08-25T23:44:58.058Z,13.60
2022-08-25T23:47:27.659Z,14.75
2022-08-25T23:49:57.168Z,16.20
2022-08-25T23:52:27.298Z,14.60
2022-08-25T23:54:58.884Z,14.95
2022-08-25T23:57:28.351Z,16.17
2022-08-25T23:59:58.475Z,16.23
